Time;durP1;ratioP1;P1;durP2;ratioP2;P2;SDS_P1;SDS_P2;PMS_P1;PMS_P2;Temp;Humidity;BMP_temperature;BMP_pressure;BME280_temperature;BME280_humidity;BME280_pressure;Samples;Min_cycle;Max_cycle;Signal;HPM_P1;HPM_P2
2024/04/08 00:00:33;;;;;;;8.68;2.25;;;;;;;;;;5072459;28;20028;-79
2024/04/08 00:02:59;;;;;;;8.60;2.83;;;;;;;;;;5073916;28;20039;-78
2024/04/08 00:05:26;;;;;;;8.15;2.42;;;;;;;;;;5071899;28;20048;-79
2024/04/08 00:07:52;;;;;;;5.53;2.35;;;;;;;;;;5072535;28;20025;-79
2024/04/08 00:10:18;;;;;;;7.93;2.22;;;;;;;;;;5072099;28;20031;-77
2024/04/08 00:12:45;;;;;;;6.78;2.25;;;;;;;;;;5073635;28;20167;-78
2024/04/08 00:15:12;;;;;;;8.02;3.25;;;;;;;;;;5072005;28;20509;-78
2024/04/08 00:17:41;;;;;;;7.35;2.78;;;;;;;;;;5072141;28;20020;-78
2024/04/08 00:20:07;;;;;;;9.43;3.75;;;;;;;;;;5073141;28;20092;-77
2024/04/08 00:22:34;;;;;;;6.30;2.22;;;;;;;;;;5071878;28;20024;-78
2024/04/08 00:25:00;;;;;;;7.05;3.03;;;;;;;;;;5072317;28;20090;-79
2024/04/08 00:27:26;;;;;;;11.27;3.47;;;;;;;;;;5072206;28;20129;-79
2024/04/08 00:29:52;;;;;;;8.48;2.58;;;;;;;;;;5072704;28;20056;-78
2024/04/08 00:32:18;;;;;;;11.68;3.90;;;;;;;;;;5072685;28;20098;-77
2024/04/08 00:34:44;;;;;;;8.05;3.13;;;;;;;;;;5073544;28;20025;-78
2024/04/08 00:37:10;;;;;;;7.65;3.35;;;;;;;;;;5071637;28;20040;-78
2024/04/08 00:39:36;;;;;;;9.63;3.05;;;;;;;;;;5073207;28;20017;-78
2024/04/08 00:42:02;;;;;;;7.30;2.85;;;;;;;;;;5071634;28;20029;-78
2024/04/08 00:44:29;;;;;;;8.70;3.75;;;;;;;;;;5071458;28;20020;-78
2024/04/08 00:46:55;;;;;;;6.57;3.00;;;;;;;;;;5071602;28;20095;-78
2024/04/08 00:49:22;;;;;;;8.43;3.20;;;;;;;;;;5071323;28;20353;-78
2024/04/08 00:51:48;;;;;;;6.50;2.58;;;;;;;;;;5072730;28;20040;-79
2024/04/08 00:54:14;;;;;;;6.53;3.05;;;;;;;;;;5071303;28;20021;-78
2024/04/08 00:56:42;;;;;;;7.05;3.17;;;;;;;;;;5072427;28;20032;-78
2024/04/08 00:59:10;;;;;;;7.85;3.17;;;;;;;;;;5071368;28;20021;-78
2024/04/08 01:01:36;;;;;;;8.50;3.90;;;;;;;;;;5071056;28;20124;-78
2024/04/08 01:04:02;;;;;;;6.85;2.50;;;;;;;;;;5071282;28;20484;-79
2024/04/08 01:06:28;;;;;;;8.60;3.03;;;;;;;;;;5071081;28;20452;-80
2024/04/08 01:08:55;;;;;;;6.75;2.83;;;;;;;;;;5071331;28;20052;-79
2024/04/08 01:11:21;;;;;;;8.45;2.72;;;;;;;;;;5070985;28;20063;-78
2024/04/08 01:13:47;;;;;;;9.45;3.00;;;;;;;;;;5071012;28;20021;-78
2024/04/08 01:16:13;;;;;;;6.18;2.58;;;;;;;;;;5070918;28;20055;-79
2024/04/08 01:18:39;;;;;;;8.40;2.10;;;;;;;;;;5071279;28;20536;-78
2024/04/08 01:21:05;;;;;;;5.13;2.25;;;;;;;;;;5071392;28;20051;-78
2024/04/08 01:23:38;;;;;;;6.63;2.42;;;;;;;;;;5070419;28;20051;-78
2024/04/08 01:26:04;;;;;;;8.02;2.67;;;;;;;;;;5070730;28;20078;-79
2024/04/08 01:28:31;;;;;;;9.13;2.60;;;;;;;;;;5070783;28;20020;-79
2024/04/08 01:31:00;;;;;;;6.65;2.33;;;;;;;;;;5070855;28;20313;-79
2024/04/08 01:33:26;;;;;;;7.72;2.90;;;;;;;;;;5087206;28;20119;-78
2024/04/08 01:35:53;;;;;;;8.50;2.03;;;;;;;;;;5073945;28;20028;-79
2024/04/08 01:38:19;;;;;;;8.98;2.50;;;;;;;;;;5073854;28;20031;-78
2024/04/08 01:40:46;;;;;;;5.65;2.20;;;;;;;;;;5092078;28;20452;-78
2024/04/08 01:43:12;;;;;;;5.97;2.17;;;;;;;;;;5073955;28;20028;-78
2024/04/08 01:45:38;;;;;;;9.00;3.08;;;;;;;;;;5091907;28;20394;-79
2024/04/08 01:48:05;;;;;;;8.07;2.13;;;;;;;;;;5073992;28;20115;-78
2024/04/08 01:50:31;;;;;;;9.43;2.10;;;;;;;;;;5073817;28;20032;-79
2024/04/08 01:52:57;;;;;;;8.82;3.10;;;;;;;;;;5074007;28;20031;-79
2024/04/08 01:55:23;;;;;;;7.03;2.40;;;;;;;;;;5073748;28;20028;-78
2024/04/08 01:57:51;;;;;;;4.63;1.52;;;;;;;;;;5092175;28;20024;-79
2024/04/08 02:00:17;;;;;;;6.82;2.03;;;;;;;;;;5073732;28;20073;-78
2024/04/08 02:02:43;;;;;;;10.75;2.45;;;;;;;;;;5073913;28;20495;-78
2024/04/08 02:05:09;;;;;;;7.85;2.92;;;;;;;;;;5073988;28;20069;-78
2024/04/08 02:07:35;;;;;;;5.75;2.53;;;;;;;;;;5073794;28;20031;-78
2024/04/08 02:10:01;;;;;;;5.10;2.22;;;;;;;;;;5091780;28;20085;-78
2024/04/08 02:12:27;;;;;;;9.75;3.45;;;;;;;;;;5073651;28;20051;-78
2024/04/08 02:14:53;;;;;;;5.40;2.50;;;;;;;;;;5091768;28;20410;-77
2024/04/08 02:17:19;;;;;;;7.53;2.65;;;;;;;;;;5073476;28;20510;-77
2024/04/08 02:19:45;;;;;;;8.05;3.35;;;;;;;;;;5073597;28;20031;-78
2024/04/08 02:22:11;;;;;;;7.65;2.40;;;;;;;;;;5073858;28;20024;-78
2024/04/08 02:24:38;;;;;;;4.82;2.13;;;;;;;;;;5073560;28;20036;-78
2024/04/08 02:27:04;;;;;;;5.53;2.60;;;;;;;;;;5073839;28;20387;-78
2024/04/08 02:29:32;;;;;;;7.55;2.63;;;;;;;;;;5073845;28;20051;-78
2024/04/08 02:31:58;;;;;;;6.82;2.38;;;;;;;;;;5073550;28;20052;-77
2024/04/08 02:34:24;;;;;;;4.53;2.55;;;;;;;;;;5074936;28;20020;-78
2024/04/08 02:36:50;;;;;;;5.18;2.40;;;;;;;;;;5097162;28;20035;-78
2024/04/08 02:39:16;;;;;;;5.28;2.38;;;;;;;;;;5077853;28;20410;-77
2024/04/08 02:41:42;;;;;;;7.20;2.67;;;;;;;;;;5097139;28;20023;-77
2024/04/08 02:44:08;;;;;;;10.43;3.58;;;;;;;;;;5077333;28;20024;-77
2024/04/08 02:46:34;;;;;;;6.35;2.65;;;;;;;;;;5077039;28;20035;-77
2024/04/08 02:49:00;;;;;;;8.95;2.42;;;;;;;;;;5077211;28;20031;-77
2024/04/08 02:51:26;;;;;;;6.43;2.90;;;;;;;;;;5077009;28;20051;-77
2024/04/08 02:53:55;;;;;;;7.72;2.83;;;;;;;;;;5095457;28;20016;-77
2024/04/08 02:56:21;;;;;;;6.50;2.60;;;;;;;;;;5076741;28;20024;-78
2024/04/08 02:58:47;;;;;;;8.18;3.03;;;;;;;;;;5077036;28;20169;-78
2024/04/08 03:01:14;;;;;;;8.45;3.20;;;;;;;;;;5095423;28;20028;-77
2024/04/08 03:03:40;;;;;;;6.60;3.22;;;;;;;;;;5076849;28;20050;-78
2024/04/08 03:06:07;;;;;;;9.77;3.85;;;;;;;;;;5076822;28;20478;-78
2024/04/08 03:08:35;;;;;;;7.85;3.47;;;;;;;;;;5076341;28;20051;-78
2024/04/08 03:11:02;;;;;;;7.47;3.22;;;;;;;;;;5076882;28;20148;-78
2024/04/08 03:13:28;;;;;;;10.18;3.67;;;;;;;;;;5076598;28;20375;-78
2024/04/08 03:15:55;;;;;;;7.45;3.42;;;;;;;;;;5076660;28;20052;-79
2024/04/08 03:18:21;;;;;;;8.77;4.00;;;;;;;;;;5076500;28;20020;-78
2024/04/08 03:21:00;;;;;;;6.50;3.00;;;;;;;;;;5095007;28;20023;-78
2024/04/08 03:23:26;;;;;;;9.10;3.60;;;;;;;;;;5076399;28;20051;-79
2024/04/08 03:25:59;;;;;;;6.70;3.17;;;;;;;;;;5076788;28;20036;-77
2024/04/08 03:28:25;;;;;;;7.63;3.70;;;;;;;;;;5094549;28;20429;-76
2024/04/08 03:30:51;;;;;;;7.45;3.28;;;;;;;;;;5076599;28;20028;-77
2024/04/08 03:33:21;;;;;;;8.02;3.53;;;;;;;;;;5076258;28;20059;-78
2024/04/08 03:35:47;;;;;;;11.20;4.63;;;;;;;;;;5094750;28;20483;-78
2024/04/08 03:38:14;;;;;;;7.05;3.58;;;;;;;;;;5076382;28;20457;-77
2024/04/08 03:40:40;;;;;;;9.75;3.95;;;;;;;;;;5076277;28;20043;-78
2024/04/08 03:43:06;;;;;;;9.95;4.50;;;;;;;;;;5076354;28;20020;-78
2024/04/08 03:45:37;;;;;;;9.55;4.07;;;;;;;;;;5075803;28;20020;-79
2024/04/08 03:48:03;;;;;;;8.57;2.95;;;;;;;;;;5075888;28;20036;-81
2024/04/08 03:50:35;;;;;;;10.93;4.10;;;;;;;;;;5094113;28;20024;-80
2024/04/08 03:53:01;;;;;;;8.02;3.95;;;;;;;;;;5076108;28;20016;-79
2024/04/08 03:55:29;;;;;;;10.32;4.45;;;;;;;;;;5075837;28;20124;-79
2024/04/08 03:57:55;;;;;;;9.32;4.07;;;;;;;;;;5094558;28;20028;-79
2024/04/08 04:00:21;;;;;;;10.15;4.95;;;;;;;;;;5075747;28;20177;-79
2024/04/08 04:02:47;;;;;;;11.48;4.38;;;;;;;;;;5075645;28;20020;-79
2024/04/08 04:05:13;;;;;;;9.02;4.47;;;;;;;;;;5093749;28;20070;-78
2024/04/08 04:07:39;;;;;;;11.65;6.20;;;;;;;;;;5093849;28;20050;-79
2024/04/08 04:10:06;;;;;;;12.68;5.13;;;;;;;;;;5094006;28;20020;-79
2024/04/08 04:12:42;;;;;;;8.88;4.00;;;;;;;;;;5075484;28;20363;-79
2024/04/08 04:15:15;;;;;;;9.32;4.93;;;;;;;;;;5075666;28;20020;-79
2024/04/08 04:17:41;;;;;;;7.40;4.13;;;;;;;;;;5075315;28;20044;-78
2024/04/08 04:20:11;;;;;;;8.15;3.97;;;;;;;;;;5075306;28;20016;-79
2024/04/08 04:22:37;;;;;;;9.50;4.03;;;;;;;;;;5075153;28;20020;-80
2024/04/08 04:25:03;;;;;;;12.30;5.80;;;;;;;;;;5075477;28;20036;-77
2024/04/08 04:27:30;;;;;;;10.90;5.10;;;;;;;;;;5093189;28;20031;-77
2024/04/08 04:29:56;;;;;;;9.38;4.75;;;;;;;;;;5093677;28;20097;-77
2024/04/08 04:32:22;;;;;;;10.18;5.43;;;;;;;;;;5074908;28;20403;-77
2024/04/08 04:34:54;;;;;;;8.00;4.15;;;;;;;;;;5075056;28;20020;-77
2024/04/08 04:37:21;;;;;;;9.18;4.05;;;;;;;;;;5074972;28;20032;-77
2024/04/08 04:39:47;;;;;;;12.93;6.03;;;;;;;;;;5093943;28;20016;-77
2024/04/08 04:42:13;;;;;;;10.30;5.90;;;;;;;;;;5076688;28;20432;-77
2024/04/08 04:44:39;;;;;;;9.95;5.75;;;;;;;;;;5075601;28;20024;-77
2024/04/08 04:47:05;;;;;;;8.80;5.25;;;;;;;;;;5094220;28;20469;-76
2024/04/08 04:49:31;;;;;;;11.20;5.47;;;;;;;;;;5095410;28;20024;-77
2024/04/08 04:51:58;;;;;;;10.38;5.90;;;;;;;;;;5092981;28;20023;-77
2024/04/08 04:54:24;;;;;;;12.77;6.07;;;;;;;;;;5092574;28;20024;-77
2024/04/08 04:56:50;;;;;;;12.73;5.75;;;;;;;;;;5074403;28;20028;-77
2024/04/08 04:59:16;;;;;;;12.18;6.35;;;;;;;;;;5073675;28;20012;-77
2024/04/08 05:01:42;;;;;;;10.75;5.43;;;;;;;;;;5074325;28;20027;-78
2024/04/08 05:04:08;;;;;;;11.95;5.03;;;;;;;;;;5092687;28;20062;-78
2024/04/08 05:06:37;;;;;;;11.98;5.53;;;;;;;;;;5074249;28;20028;-77
2024/04/08 05:09:04;;;;;;;9.10;5.13;;;;;;;;;;5074609;28;20089;-78
2024/04/08 05:11:30;;;;;;;10.02;5.38;;;;;;;;;;5074215;28;20491;-77
2024/04/08 05:13:56;;;;;;;11.55;6.78;;;;;;;;;;5074427;28;20060;-77
2024/04/08 05:16:22;;;;;;;12.73;5.80;;;;;;;;;;5074310;28;20063;-77
2024/04/08 05:18:48;;;;;;;13.55;6.40;;;;;;;;;;5074438;28;20071;-76
2024/04/08 05:21:14;;;;;;;12.85;6.28;;;;;;;;;;5073198;28;20026;-79
2024/04/08 05:23:41;;;;;;;10.60;5.47;;;;;;;;;;5071773;28;20033;-78
2024/04/08 05:26:10;;;;;;;9.25;4.25;;;;;;;;;;5061981;28;20036;-78
2024/04/08 05:28:36;;;;;;;11.57;4.53;;;;;;;;;;5070334;28;20024;-78
2024/04/08 05:31:02;;;;;;;8.70;5.78;;;;;;;;;;5070809;28;20033;-78
2024/04/08 05:33:28;;;;;;;9.32;4.85;;;;;;;;;;5070851;28;20053;-77
2024/04/08 05:35:54;;;;;;;10.48;6.05;;;;;;;;;;5071145;28;20444;-77
2024/04/08 05:38:21;;;;;;;8.30;4.40;;;;;;;;;;5071059;28;20032;-77
2024/04/08 05:40:47;;;;;;;13.52;5.53;;;;;;;;;;5071309;28;20107;-78
2024/04/08 05:43:14;;;;;;;10.40;5.32;;;;;;;;;;5065661;28;20020;-78
2024/04/08 05:45:40;;;;;;;7.45;4.40;;;;;;;;;;5054452;28;20029;-78
2024/04/08 05:48:07;;;;;;;10.55;4.65;;;;;;;;;;5054602;28;20054;-78
2024/04/08 05:50:33;;;;;;;10.70;4.95;;;;;;;;;;5072691;28;20033;-78
2024/04/08 05:53:00;;;;;;;10.63;5.40;;;;;;;;;;5054609;28;20024;-78
2024/04/08 05:55:28;;;;;;;9.77;5.57;;;;;;;;;;5071732;28;20029;-78
2024/04/08 05:57:54;;;;;;;11.80;5.75;;;;;;;;;;5072178;28;20012;-78
2024/04/08 06:00:20;;;;;;;11.77;6.30;;;;;;;;;;5054351;28;20475;-78
2024/04/08 06:02:54;;;;;;;9.20;5.72;;;;;;;;;;5072069;28;20380;-78
2024/04/08 06:05:21;;;;;;;12.73;5.65;;;;;;;;;;5054073;28;20020;-78
2024/04/08 06:07:48;;;;;;;9.35;4.80;;;;;;;;;;5053909;28;20048;-77
2024/04/08 06:10:15;;;;;;;8.20;5.25;;;;;;;;;;5074252;28;20021;-78
2024/04/08 06:12:42;;;;;;;11.80;6.10;;;;;;;;;;5057586;28;20080;-77
2024/04/08 06:15:08;;;;;;;14.73;5.90;;;;;;;;;;5057803;28;20024;-78
2024/04/08 06:17:34;;;;;;;5.82;3.35;;;;;;;;;;5057435;28;20492;-77
2024/04/08 06:20:01;;;;;;;7.55;4.10;;;;;;;;;;5075532;28;20017;-77
2024/04/08 06:22:28;;;;;;;8.05;4.78;;;;;;;;;;5057524;28;20078;-78
2024/04/08 06:24:54;;;;;;;9.45;6.18;;;;;;;;;;5057976;28;20476;-78
2024/04/08 06:27:20;;;;;;;10.73;6.05;;;;;;;;;;5075620;28;20024;-78
2024/04/08 06:29:46;;;;;;;11.25;6.70;;;;;;;;;;5057431;28;20513;-78
2024/04/08 06:32:12;;;;;;;9.18;6.28;;;;;;;;;;5057358;28;20132;-78
2024/04/08 06:34:38;;;;;;;10.45;5.32;;;;;;;;;;5057385;28;20095;-77
2024/04/08 06:37:04;;;;;;;10.18;5.82;;;;;;;;;;5057600;28;20045;-78
2024/04/08 06:39:30;;;;;;;9.75;5.93;;;;;;;;;;5075262;28;20025;-78
2024/04/08 06:41:56;;;;;;;9.73;5.53;;;;;;;;;;5057558;28;20020;-78
2024/04/08 06:44:22;;;;;;;8.77;4.57;;;;;;;;;;5057792;28;20371;-78
2024/04/08 06:46:48;;;;;;;13.10;5.20;;;;;;;;;;5057793;28;20539;-78
2024/04/08 06:49:14;;;;;;;7.82;4.85;;;;;;;;;;5058016;28;20049;-78
2024/04/08 06:51:40;;;;;;;10.23;4.50;;;;;;;;;;5075775;28;20024;-78
2024/04/08 06:54:06;;;;;;;9.48;5.13;;;;;;;;;;5075375;28;20452;-76
2024/04/08 06:56:32;;;;;;;10.35;4.78;;;;;;;;;;5076175;28;20464;-76
2024/04/08 06:58:58;;;;;;;10.18;5.47;;;;;;;;;;5057485;28;20031;-77
2024/04/08 07:01:25;;;;;;;11.75;4.65;;;;;;;;;;5073498;28;20020;-78
2024/04/08 07:03:51;;;;;;;10.10;5.50;;;;;;;;;;5073464;28;20025;-77
2024/04/08 07:06:18;;;;;;;10.18;5.00;;;;;;;;;;5073606;28;20090;-79
2024/04/08 07:08:44;;;;;;;9.25;4.35;;;;;;;;;;5073078;28;20035;-77
2024/04/08 07:11:10;;;;;;;14.65;5.88;;;;;;;;;;5074414;28;20369;-78
2024/04/08 07:13:38;;;;;;;10.60;5.93;;;;;;;;;;5072967;28;20025;-78
2024/04/08 07:16:04;;;;;;;12.70;5.20;;;;;;;;;;5074290;28;20547;-78
2024/04/08 07:18:30;;;;;;;10.98;6.43;;;;;;;;;;5077549;28;20020;-78
2024/04/08 07:20:56;;;;;;;13.93;6.93;;;;;;;;;;5093664;28;20021;-79
2024/04/08 07:23:22;;;;;;;12.50;6.38;;;;;;;;;;5076506;28;20357;-78
2024/04/08 07:25:50;;;;;;;8.75;5.22;;;;;;;;;;5094851;28;20463;-78
2024/04/08 07:28:16;;;;;;;11.18;6.47;;;;;;;;;;5076366;28;20024;-78
2024/04/08 07:30:42;;;;;;;10.73;5.25;;;;;;;;;;5076165;28;20032;-78
2024/04/08 07:33:08;;;;;;;10.85;6.30;;;;;;;;;;5094298;28;20043;-77
2024/04/08 07:35:34;;;;;;;11.63;6.35;;;;;;;;;;5075949;28;20040;-77
2024/04/08 07:38:00;;;;;;;11.52;5.43;;;;;;;;;;5068976;28;20056;-77
2024/04/08 07:40:26;;;;;;;11.38;6.20;;;;;;;;;;5073828;28;20070;-76
2024/04/08 07:42:52;;;;;;;14.40;6.22;;;;;;;;;;5055956;28;20124;-76
2024/04/08 07:45:18;;;;;;;11.77;5.85;;;;;;;;;;5074215;28;20047;-76
2024/04/08 07:47:45;;;;;;;12.45;6.63;;;;;;;;;;5055608;28;20384;-76
2024/04/08 07:50:11;;;;;;;9.10;4.65;;;;;;;;;;5055750;28;20108;-77
2024/04/08 07:52:38;;;;;;;10.55;4.78;;;;;;;;;;5055838;28;20086;-76
2024/04/08 07:55:05;;;;;;;12.90;5.57;;;;;;;;;;5074167;28;20021;-76
2024/04/08 07:57:31;;;;;;;10.07;5.15;;;;;;;;;;5055426;28;20221;-77
2024/04/08 07:59:57;;;;;;;8.57;4.95;;;;;;;;;;5055880;28;20115;-76
2024/04/08 08:02:24;;;;;;;13.02;5.90;;;;;;;;;;5055959;28;20224;-77
2024/04/08 08:04:51;;;;;;;10.45;5.55;;;;;;;;;;5055530;28;20052;-76
2024/04/08 08:07:17;;;;;;;12.75;6.55;;;;;;;;;;5055737;28;20028;-76
2024/04/08 08:09:43;;;;;;;9.70;5.95;;;;;;;;;;5055600;28;20025;-76
2024/04/08 08:12:09;;;;;;;9.45;5.85;;;;;;;;;;5055625;28;20024;-76
2024/04/08 08:14:35;;;;;;;8.85;5.18;;;;;;;;;;5073581;28;20020;-77
2024/04/08 08:17:01;;;;;;;8.65;5.20;;;;;;;;;;5055723;28;20032;-76
2024/04/08 08:19:27;;;;;;;8.85;5.05;;;;;;;;;;5055879;28;20027;-75
2024/04/08 08:21:53;;;;;;;9.98;4.88;;;;;;;;;;5073820;28;20032;-76
2024/04/08 08:24:20;;;;;;;12.50;5.40;;;;;;;;;;5055465;28;20476;-76
2024/04/08 08:26:47;;;;;;;9.52;4.88;;;;;;;;;;5055108;28;20024;-76
2024/04/08 08:29:13;;;;;;;9.93;4.70;;;;;;;;;;5055348;28;20090;-77
2024/04/08 08:31:39;;;;;;;6.80;3.67;;;;;;;;;;5072610;28;20028;-77
2024/04/08 08:34:05;;;;;;;8.77;3.75;;;;;;;;;;5055093;28;20021;-77
2024/04/08 08:36:31;;;;;;;11.90;4.70;;;;;;;;;;5054900;28;20029;-77
2024/04/08 08:40:21;;;;;;;9.98;2.50;;;;;;;;;;5426088;26;20304;-76
2024/04/08 08:42:50;;;;;;;8.52;3.35;;;;;;;;;;5367781;26;20104;-78
2024/04/08 08:45:17;;;;;;;9.10;4.07;;;;;;;;;;5361068;26;20012;-77
2024/04/08 08:47:43;;;;;;;11.15;3.33;;;;;;;;;;5361165;26;20514;-78
2024/04/08 08:50:10;;;;;;;8.88;2.75;;;;;;;;;;5363427;26;20012;-78
2024/04/08 08:52:37;;;;;;;9.32;2.88;;;;;;;;;;5374994;26;20013;-77
2024/04/08 08:55:03;;;;;;;6.25;2.08;;;;;;;;;;5391010;26;20016;-77
2024/04/08 08:57:30;;;;;;;5.85;2.67;;;;;;;;;;5363960;26;20009;-76
2024/04/08 08:59:58;;;;;;;6.07;3.00;;;;;;;;;;5363679;26;20013;-77
2024/04/08 09:02:25;;;;;;;6.97;2.90;;;;;;;;;;5391557;26;20016;-76
2024/04/08 09:04:52;;;;;;;8.50;2.85;;;;;;;;;;5363226;26;20027;-78
2024/04/08 09:07:19;;;;;;;5.65;2.00;;;;;;;;;;5390647;26;20012;-78
2024/04/08 09:09:54;;;;;;;8.73;3.45;;;;;;;;;;5390299;26;20340;-77
2024/04/08 09:12:20;;;;;;;11.73;3.83;;;;;;;;;;5395617;26;20008;-78
2024/04/08 09:14:49;;;;;;;6.63;2.95;;;;;;;;;;5395933;26;20015;-78
2024/04/08 09:17:15;;;;;;;7.78;2.45;;;;;;;;;;5398274;26;20004;-77
2024/04/08 09:19:41;;;;;;;9.60;3.05;;;;;;;;;;5396155;26;20016;-77
2024/04/08 09:22:08;;;;;;;7.10;3.33;;;;;;;;;;5397960;26;20000;-77
2024/04/08 09:24:34;;;;;;;8.70;2.72;;;;;;;;;;5395899;26;20073;-77
2024/04/08 09:27:01;;;;;;;6.95;3.55;;;;;;;;;;5396089;26;20335;-77
2024/04/08 09:29:27;;;;;;;8.73;3.65;;;;;;;;;;5396229;26;20004;-77
2024/04/08 09:31:53;;;;;;;8.35;3.88;;;;;;;;;;5395876;26;20069;-77
2024/04/08 09:34:19;;;;;;;7.88;3.97;;;;;;;;;;5396017;26;20004;-78
2024/04/08 09:36:45;;;;;;;11.80;5.20;;;;;;;;;;5395794;26;20000;-77
2024/04/08 09:39:13;;;;;;;10.45;3.60;;;;;;;;;;5395685;26;20444;-77
2024/04/08 09:41:39;;;;;;;12.00;3.80;;;;;;;;;;5395843;26;20015;-76
2024/04/08 09:44:09;;;;;;;10.88;5.47;;;;;;;;;;5397900;26;20451;-76
2024/04/08 09:46:36;;;;;;;9.10;5.30;;;;;;;;;;5397183;26;20081;-76
2024/04/08 09:49:03;;;;;;;11.05;5.63;;;;;;;;;;5396003;26;20000;-77
2024/04/08 09:51:30;;;;;;;11.30;7.13;;;;;;;;;;5380538;26;20015;-77
2024/04/08 09:53:56;;;;;;;15.18;5.80;;;;;;;;;;5380398;26;20015;-77
2024/04/08 09:56:28;;;;;;;9.95;5.72;;;;;;;;;;5380510;26;20004;-77
2024/04/08 09:59:14;;;;;;;11.27;6.57;;;;;;;;;;5382033;26;20005;-77
2024/04/08 10:01:42;;;;;;;10.75;5.82;;;;;;;;;;5380208;26;20086;-78
2024/04/08 10:04:22;;;;;;;13.52;8.07;;;;;;;;;;5380190;26;20004;-78
2024/04/08 10:06:49;;;;;;;16.58;6.22;;;;;;;;;;5381795;26;20005;-77
2024/04/08 10:09:15;;;;;;;11.23;6.43;;;;;;;;;;5380588;26;20000;-77
2024/04/08 10:11:46;;;;;;;13.27;6.85;;;;;;;;;;5380011;26;20309;-76
2024/04/08 10:14:15;;;;;;;14.98;8.15;;;;;;;;;;5380473;26;20004;-78
2024/04/08 10:16:41;;;;;;;10.98;6.15;;;;;;;;;;5381753;26;20018;-78
2024/04/08 10:19:11;;;;;;;11.95;6.93;;;;;;;;;;5380157;26;20337;-77
2024/04/08 10:21:38;;;;;;;12.88;7.07;;;;;;;;;;5381808;26;20000;-77
2024/04/08 10:24:04;;;;;;;12.85;6.07;;;;;;;;;;5379389;26;20047;-77
2024/04/08 10:26:34;;;;;;;12.02;6.82;;;;;;;;;;5381419;26;20001;-78
2024/04/08 10:29:01;;;;;;;8.45;4.43;;;;;;;;;;5380927;26;20083;-78
2024/04/08 10:31:30;;;;;;;9.43;4.65;;;;;;;;;;5380868;26;20015;-78
2024/04/08 10:33:56;;;;;;;11.10;5.57;;;;;;;;;;5379225;26;20528;-78
2024/04/08 10:36:22;;;;;;;12.45;6.45;;;;;;;;;;5381144;26;20168;-78
2024/04/08 10:38:50;;;;;;;11.30;6.20;;;;;;;;;;5378153;26;20004;-78
2024/04/08 10:41:17;;;;;;;14.35;8.52;;;;;;;;;;5380008;26;20000;-77
2024/04/08 10:43:43;;;;;;;7.13;4.03;;;;;;;;;;5379793;26;20008;-76
2024/04/08 10:46:14;;;;;;;14.32;11.02;;;;;;;;;;5379949;26;20000;-77
2024/04/08 10:48:42;;;;;;;11.13;7.70;;;;;;;;;;5379569;26;20460;-77
2024/04/08 10:51:12;;;;;;;7.95;5.03;;;;;;;;;;5379806;26;20018;-77
2024/04/08 10:53:41;;;;;;;18.87;11.70;;;;;;;;;;5379167;26;20348;-77
2024/04/08 10:56:08;;;;;;;13.95;9.25;;;;;;;;;;5379669;26;20000;-77
2024/04/08 10:58:34;;;;;;;12.35;7.82;;;;;;;;;;5379466;26;20014;-78
2024/04/08 11:01:00;;;;;;;11.13;8.45;;;;;;;;;;5379315;26;20000;-77
2024/04/08 11:03:27;;;;;;;11.48;8.60;;;;;;;;;;5379853;26;20074;-76
2024/04/08 11:05:53;;;;;;;10.27;7.85;;;;;;;;;;5382141;26;20019;-77
2024/04/08 11:08:19;;;;;;;11.10;9.18;;;;;;;;;;5380061;26;20000;-75
2024/04/08 11:10:46;;;;;;;10.60;6.50;;;;;;;;;;5380119;26;20014;-76
2024/04/08 11:13:12;;;;;;;10.30;7.38;;;;;;;;;;5379652;26;20433;-77
2024/04/08 11:15:40;;;;;;;11.52;7.30;;;;;;;;;;5381175;26;20004;-78
2024/04/08 11:18:10;;;;;;;9.75;6.90;;;;;;;;;;5379377;26;20020;-77
2024/04/08 11:20:36;;;;;;;13.15;8.48;;;;;;;;;;5379680;26;20077;-77
2024/04/08 11:23:05;;;;;;;9.35;5.47;;;;;;;;;;5380805;26;20004;-77
2024/04/08 11:25:31;;;;;;;10.73;9.00;;;;;;;;;;5379311;26;20004;-78
2024/04/08 11:27:59;;;;;;;8.20;5.85;;;;;;;;;;5379148;26;20077;-78
2024/04/08 11:30:25;;;;;;;10.02;7.30;;;;;;;;;;5381130;26;20454;-77
2024/04/08 11:32:52;;;;;;;11.52;8.52;;;;;;;;;;5380981;26;20036;-78
2024/04/08 11:35:18;;;;;;;8.60;6.32;;;;;;;;;;5381143;26;20004;-78
2024/04/08 11:37:44;;;;;;;10.50;7.63;;;;;;;;;;5379071;26;20019;-78
2024/04/08 11:40:10;;;;;;;13.10;8.75;;;;;;;;;;5380503;26;20015;-77
2024/04/08 11:42:36;;;;;;;9.85;5.90;;;;;;;;;;5378818;26;20044;-77
2024/04/08 11:45:03;;;;;;;13.27;9.25;;;;;;;;;;5378588;26;20001;-77
2024/04/08 11:47:29;;;;;;;9.73;6.43;;;;;;;;;;5378722;26;20004;-78
2024/04/08 11:49:56;;;;;;;9.18;6.15;;;;;;;;;;5380606;26;20000;-79
2024/04/08 11:52:22;;;;;;;9.75;6.72;;;;;;;;;;5380649;26;20004;-77
2024/04/08 11:54:48;;;;;;;9.73;7.25;;;;;;;;;;5378425;26;20081;-78
2024/04/08 11:57:15;;;;;;;11.77;9.32;;;;;;;;;;5380459;26;20019;-78
2024/04/08 11:59:41;;;;;;;11.32;9.65;;;;;;;;;;5380141;26;20344;-78
2024/04/08 12:02:08;;;;;;;10.98;7.32;;;;;;;;;;5378824;26;20444;-78
2024/04/08 12:04:34;;;;;;;12.48;8.85;;;;;;;;;;5379033;26;20004;-78
2024/04/08 12:07:01;;;;;;;12.98;10.07;;;;;;;;;;5379016;26;20016;-78
2024/04/08 12:09:27;;;;;;;12.13;8.60;;;;;;;;;;5380400;26;20000;-79
2024/04/08 12:11:53;;;;;;;10.75;6.78;;;;;;;;;;5380239;26;20464;-77
2024/04/08 12:14:19;;;;;;;13.10;8.48;;;;;;;;;;5348960;26;20004;-78
2024/04/08 12:16:45;;;;;;;6.32;3.47;;;;;;;;;;5378397;26;20000;-79
2024/04/08 12:19:11;;;;;;;15.68;9.52;;;;;;;;;;5378280;26;20000;-77
2024/04/08 12:21:37;;;;;;;11.35;9.75;;;;;;;;;;5378432;26;20019;-78
2024/04/08 12:24:04;;;;;;;9.38;6.30;;;;;;;;;;5379779;26;20004;-78
2024/04/08 12:26:30;;;;;;;11.38;7.05;;;;;;;;;;5380002;26;20000;-78
2024/04/08 12:28:56;;;;;;;12.50;10.57;;;;;;;;;;5377795;26;20036;-78
2024/04/08 12:31:22;;;;;;;11.10;6.00;;;;;;;;;;5378385;26;20004;-78
2024/04/08 12:33:48;;;;;;;16.23;10.35;;;;;;;;;;5379618;26;20020;-78
2024/04/08 12:36:15;;;;;;;13.18;7.28;;;;;;;;;;5378046;26;20500;-79
2024/04/08 12:38:41;;;;;;;11.75;7.85;;;;;;;;;;5379681;26;20468;-77
2024/04/08 12:41:08;;;;;;;8.45;6.30;;;;;;;;;;5378260;26;20050;-79
2024/04/08 12:43:34;;;;;;;12.25;7.45;;;;;;;;;;5378384;26;20414;-78
2024/04/08 12:46:00;;;;;;;17.58;12.40;;;;;;;;;;5379749;26;20050;-78
2024/04/08 12:48:26;;;;;;;13.82;10.98;;;;;;;;;;5378030;26;20004;-79
2024/04/08 12:50:52;;;;;;;10.68;8.00;;;;;;;;;;5377718;26;20607;-77
2024/04/08 12:53:19;;;;;;;17.02;10.32;;;;;;;;;;5378026;26;20441;-77
2024/04/08 12:55:47;;;;;;;17.50;11.82;;;;;;;;;;5377768;26;20073;-79
2024/04/08 12:58:13;;;;;;;16.92;10.30;;;;;;;;;;5379813;26;20391;-78
2024/04/08 13:00:40;;;;;;;14.23;12.65;;;;;;;;;;5379858;26;20000;-78
2024/04/08 13:03:06;;;;;;;12.27;8.23;;;;;;;;;;5377976;26;20036;-78
2024/04/08 13:05:32;;;;;;;12.70;8.88;;;;;;;;;;5378299;26;20019;-79
2024/04/08 13:07:58;;;;;;;14.23;8.23;;;;;;;;;;5377965;26;20012;-78
2024/04/08 13:10:25;;;;;;;12.40;10.05;;;;;;;;;;5378518;26;20124;-76
2024/04/08 13:12:51;;;;;;;14.80;9.82;;;;;;;;;;5379602;26;20039;-78
2024/04/08 13:15:17;;;;;;;11.77;7.32;;;;;;;;;;5378810;26;20004;-77
2024/04/08 13:17:43;;;;;;;12.30;8.27;;;;;;;;;;5381883;26;20340;-78
2024/04/08 13:20:09;;;;;;;11.15;7.95;;;;;;;;;;5377666;26;20004;-79
2024/04/08 13:22:35;;;;;;;12.88;8.27;;;;;;;;;;5379422;26;20019;-78
2024/04/08 13:25:02;;;;;;;12.52;7.22;;;;;;;;;;5377580;26;20016;-78
2024/04/08 13:27:28;;;;;;;12.82;8.88;;;;;;;;;;5380987;26;20503;-79
2024/04/08 13:29:54;;;;;;;13.77;9.68;;;;;;;;;;5380730;26;20450;-79
2024/04/08 13:32:20;;;;;;;10.50;5.75;;;;;;;;;;5380957;26;20014;-79
2024/04/08 13:34:46;;;;;;;8.20;5.82;;;;;;;;;;5380823;26;20006;-77
2024/04/08 13:37:12;;;;;;;8.57;5.50;;;;;;;;;;5380941;26;20000;-78
2024/04/08 13:39:41;;;;;;;8.68;4.50;;;;;;;;;;5380457;26;20019;-78
2024/04/08 13:42:07;;;;;;;8.80;4.32;;;;;;;;;;5380620;26;20568;-77
2024/04/08 13:44:33;;;;;;;10.38;6.28;;;;;;;;;;5380749;26;20004;-79
2024/04/08 13:46:59;;;;;;;7.18;3.95;;;;;;;;;;5380506;26;20004;-76
2024/04/08 13:49:25;;;;;;;8.73;4.72;;;;;;;;;;5380969;26;20005;-77
2024/04/08 13:51:59;;;;;;;6.88;4.05;;;;;;;;;;5380366;26;20440;-77
2024/04/08 13:54:26;;;;;;;7.63;4.50;;;;;;;;;;5382524;26;20004;-77
2024/04/08 13:56:52;;;;;;;5.93;3.45;;;;;;;;;;5380345;26;20074;-78
2024/04/08 13:59:19;;;;;;;8.55;5.30;;;;;;;;;;5375626;26;20012;-78
2024/04/08 14:01:45;;;;;;;7.05;4.90;;;;;;;;;;5380207;26;20015;-78
2024/04/08 14:04:12;;;;;;;5.97;3.33;;;;;;;;;;5379676;26;20012;-77
2024/04/08 14:06:38;;;;;;;7.10;3.38;;;;;;;;;;5380232;26;20008;-77
2024/04/08 14:09:04;;;;;;;8.68;6.25;;;;;;;;;;5379822;26;20000;-77
2024/04/08 14:11:30;;;;;;;6.43;3.55;;;;;;;;;;5380400;26;20379;-78
2024/04/08 14:13:56;;;;;;;13.02;5.65;;;;;;;;;;5377444;26;20038;-78
2024/04/08 14:16:24;;;;;;;10.18;5.65;;;;;;;;;;5381341;26;20008;-78
2024/04/08 14:18:50;;;;;;;8.75;5.65;;;;;;;;;;5379503;26;20004;-78
2024/04/08 14:21:17;;;;;;;13.02;9.50;;;;;;;;;;5380195;26;19996;-78
2024/04/08 14:23:43;;;;;;;16.42;11.07;;;;;;;;;;5380094;26;20380;-78
2024/04/08 14:26:09;;;;;;;13.75;10.70;;;;;;;;;;5381802;26;19997;-77
2024/04/08 14:28:35;;;;;;;10.05;7.80;;;;;;;;;;5380073;26;20000;-78
2024/04/08 14:31:01;;;;;;;10.07;6.10;;;;;;;;;;5370320;26;20000;-78
2024/04/08 14:33:27;;;;;;;14.85;10.43;;;;;;;;;;5366818;26;20010;-77